Bowman Field Louisville US
ICAO: KLOU
IATA: LOU
Category: Medium
Scheduled Services: No

Elevation: 546 ft
TransAlt. 18000 ft.

Airport Communications:
LOUISVILLE APP/DEP:123.675
ATIS:112.2
CLNC DEL:118.9
CTAF:119.5
GND:121.8
LOUISVILLE RDO:122.2
TWR:119.5
UNICOM:122.95

KLOU Zoom In..

Runways:

(A) RW 06 length 4358 ft width 75 ft
---- / hdg 64

(B) RW 15 length 3580 ft width 75 ft
---- / hdg 147

(C) RW 24 length 4358 ft width 75 ft
---- / hdg 244

(D) RW 33 length 3580 ft width 75 ft
---- / hdg 327

Location; KLOU
Day. 21 / Time. 13.53 Zulu
* Altimeter: 30.15
* Temperature: 25° c. 77°f.
* Wind from: 190° Speed 04 kn.
Dewpoint: 19° c.
Visibility: 10 Statute Miles.
Clouds: Clear (automated report).

KLOU 211353Z 19004KT 10SM CLR 25/19 A3015 RMK AO2 SLP203 T02500194


Wind From 190°
Speed 04 kn.

 
 
jpsmedia.com for Web Design SOUNDCLOUD worldairports.se 2018   terms of use